Portada
METAR-TAF:

METAR-TAF

Aeroports :

Erevan, Armènia

latitud: 40-08-50N, longitud: 044-23-45E, altitud: 865 m

Observació

L'informe es va fer fa 36 minuts, a les 18:30 UTC
Vent calma
Temperatura 8°C
Humitat 93%
Pressió 1005 hPa
Visibilitat 10 km o més
Núvols disperses a una alçada de 4300 ft

METAR: UDYZ 291830Z 00000KT 9999 SCT043 08/07 Q1005 R09/190065 NOSIG

Hora: 23:06 (19:06 UTC)

Pronòstic

L'informe es va fer fa 2 hores i 5 minuts, a les 17:01 UTC
Pronòstic vàlid del 29 a les 18 UTC al 30 a les 18 UTC
Vent 6 kt amb direcció variable
Visibilitat: 6000 m
Núvols disperses a una alçada de 4000 ft
Temporalment
l' 29 a les 18 UTC al 30 a les 06 UTC
Cel ennuvolat a una alçada de 3000 ft, Cumulonimbus.
xàfecs de pluja

TAF: UDYZ 291701Z 2918/3018 VRB06KT 6000 SCT040 TEMPO 2918/3006 -SHRA BKN030CB

Observacions i pronòstics meteorològics de més de 4000 aeroports (METAR i TAF).

Les estacions disponibles són els punts grocs i vermells al mapa.

Posi el ratolí al punt desitjat per veure el nom de l'estació.

Feu clic per veure les observacions i els pronòstics meteorològics.

Per canviar el mapa: feu clic els botons verds amb una creu de color negre per apropar; al botó verd amb un guió per allunyar la imatge; o en les fletxes verdes per a mapes adjacents.


METAR-TAF: